createdAt,value
2016-08-14T00:00:36.852Z,960.07
2016-08-14T00:01:36.878Z,960.09
2016-08-14T00:02:36.909Z,960.08
2016-08-14T00:03:36.933Z,960.09
2016-08-14T00:04:36.960Z,960.09
2016-08-14T00:05:36.988Z,960.14
2016-08-14T00:06:37.014Z,960.09
2016-08-14T00:07:37.040Z,960.05
2016-08-14T00:08:37.069Z,960.05
2016-08-14T00:09:37.101Z,960.05
2016-08-14T00:10:37.124Z,960.09
2016-08-14T00:11:37.148Z,960.04
2016-08-14T00:12:37.177Z,960.06
2016-08-14T00:13:37.204Z,960.02
2016-08-14T00:14:37.229Z,960.05
2016-08-14T00:15:37.256Z,960.05
2016-08-14T00:16:37.283Z,960.04
2016-08-14T00:17:37.310Z,960.09
2016-08-14T00:18:37.342Z,960.1
2016-08-14T00:19:37.365Z,960.06
2016-08-14T00:20:37.395Z,960.08
2016-08-14T00:21:37.419Z,960.11
2016-08-14T00:22:37.447Z,960.08
2016-08-14T00:23:37.473Z,960.08
2016-08-14T00:24:37.501Z,960.06
2016-08-14T00:25:37.528Z,960.07
2016-08-14T00:26:37.556Z,960.09
2016-08-14T00:27:37.583Z,960.06
2016-08-14T00:28:37.608Z,960.06
2016-08-14T00:29:37.636Z,960.08
2016-08-14T00:30:37.663Z,960.06
2016-08-14T00:31:37.690Z,960.08
2016-08-14T00:32:37.717Z,960.07
2016-08-14T00:33:37.745Z,960.07
2016-08-14T00:34:37.777Z,960.05
2016-08-14T00:35:37.798Z,960.04
2016-08-14T00:36:37.823Z,960.08
2016-08-14T00:37:37.869Z,960.04
2016-08-14T00:38:37.877Z,960.03
2016-08-14T00:39:37.903Z,960.03
2016-08-14T00:40:37.929Z,960.05
2016-08-14T00:41:37.957Z,960
2016-08-14T00:42:37.985Z,960.01
2016-08-14T00:43:38.013Z,959.99
2016-08-14T00:44:38.037Z,960
2016-08-14T00:45:38.068Z,959.93
2016-08-14T00:46:38.091Z,959.98
2016-08-14T00:47:38.117Z,959.96
2016-08-14T00:48:38.146Z,959.97
2016-08-14T00:49:38.172Z,960.01
2016-08-14T00:50:38.199Z,959.98
2016-08-14T00:51:38.225Z,960
2016-08-14T00:52:38.253Z,959.99
2016-08-14T00:53:38.280Z,959.97
2016-08-14T00:54:38.305Z,959.98
2016-08-14T00:55:38.334Z,959.98
2016-08-14T00:56:38.360Z,959.97
2016-08-14T00:57:38.386Z,959.95
2016-08-14T00:58:38.415Z,959.94
2016-08-14T00:59:38.441Z,960.01
2016-08-14T01:00:38.472Z,959.99
2016-08-14T01:01:38.496Z,959.97
2016-08-14T01:02:38.521Z,959.95
2016-08-14T01:03:38.548Z,959.94
2016-08-14T01:04:38.575Z,959.92
2016-08-14T01:05:38.602Z,959.94
2016-08-14T01:06:38.631Z,959.91
2016-08-14T01:07:38.654Z,959.89
2016-08-14T01:08:38.679Z,959.91
2016-08-14T01:09:38.707Z,959.92
2016-08-14T01:10:38.734Z,959.92
2016-08-14T01:11:38.761Z,959.89
2016-08-14T01:12:38.785Z,959.96
2016-08-14T01:13:38.821Z,959.93
2016-08-14T01:14:38.847Z,959.93
2016-08-14T01:15:38.868Z,959.94
2016-08-14T01:16:38.894Z,959.89
2016-08-14T01:17:38.921Z,959.89
2016-08-14T01:18:38.948Z,959.89
2016-08-14T01:19:38.973Z,959.87
2016-08-14T01:20:39.001Z,959.9
2016-08-14T01:21:39.028Z,959.89
2016-08-14T01:22:39.066Z,959.9
2016-08-14T01:23:39.081Z,959.86
2016-08-14T01:24:39.110Z,959.86
2016-08-14T01:25:39.135Z,959.86
2016-08-14T01:26:39.161Z,959.89
2016-08-14T01:27:39.188Z,959.85
2016-08-14T01:28:39.213Z,959.85
2016-08-14T01:29:39.240Z,959.82
2016-08-14T01:30:39.282Z,959.83
2016-08-14T01:31:39.293Z,959.79
2016-08-14T01:32:39.320Z,959.8
2016-08-14T01:33:39.348Z,959.77
2016-08-14T01:34:39.372Z,959.78
2016-08-14T01:35:39.400Z,959.77
2016-08-14T01:36:39.426Z,959.8
2016-08-14T01:37:39.454Z,959.78
2016-08-14T01:38:39.499Z,959.78
2016-08-14T01:39:39.507Z,959.78
2016-08-14T01:40:39.533Z,959.77
2016-08-14T01:41:39.558Z,959.78
2016-08-14T01:42:39.585Z,959.78
2016-08-14T01:43:39.611Z,959.74
2016-08-14T01:44:39.638Z,959.75
2016-08-14T01:45:39.664Z,959.72
2016-08-14T01:46:39.692Z,959.72
2016-08-14T01:47:39.717Z,959.71
2016-08-14T01:48:39.744Z,959.74
2016-08-14T01:49:39.771Z,959.72
2016-08-14T01:50:39.797Z,959.73
2016-08-14T01:51:39.825Z,959.72
2016-08-14T01:52:39.853Z,959.68
2016-08-14T01:53:39.876Z,959.69
2016-08-14T01:54:39.903Z,959.66
2016-08-14T01:55:39.929Z,959.64
2016-08-14T01:56:39.956Z,959.62
2016-08-14T01:57:39.980Z,959.59
2016-08-14T01:58:40.008Z,959.62
2016-08-14T01:59:40.036Z,959.59
2016-08-14T02:00:40.062Z,959.61
2016-08-14T02:01:40.088Z,959.6
2016-08-14T02:02:40.114Z,959.57
2016-08-14T02:03:40.140Z,959.52
2016-08-14T02:04:40.167Z,959.58
2016-08-14T02:05:40.197Z,959.56
2016-08-14T02:06:40.219Z,959.6
2016-08-14T02:07:40.244Z,959.58
2016-08-14T02:08:40.273Z,959.59
2016-08-14T02:09:40.302Z,959.6
2016-08-14T02:10:40.326Z,959.54
2016-08-14T02:11:40.351Z,959.57
2016-08-14T02:12:40.377Z,959.61
2016-08-14T02:13:40.404Z,959.62
2016-08-14T02:14:40.428Z,959.59
2016-08-14T02:15:40.456Z,959.57
2016-08-14T02:16:40.481Z,959.59
2016-08-14T02:17:40.507Z,959.6
2016-08-14T02:18:40.537Z,959.61
2016-08-14T02:19:40.559Z,959.61
2016-08-14T02:20:40.587Z,959.6
2016-08-14T02:21:40.612Z,959.59
2016-08-14T02:22:40.639Z,959.62
2016-08-14T02:23:40.666Z,959.64
2016-08-14T02:24:40.692Z,959.62
2016-08-14T02:25:40.718Z,959.57
2016-08-14T02:26:40.745Z,959.58
2016-08-14T02:27:40.771Z,959.54
2016-08-14T02:28:40.796Z,959.54
2016-08-14T02:29:40.822Z,959.53
2016-08-14T02:30:40.846Z,959.58
2016-08-14T02:31:40.875Z,959.55
2016-08-14T02:32:40.900Z,959.55
2016-08-14T02:33:40.927Z,959.55
2016-08-14T02:34:40.958Z,959.51
2016-08-14T02:35:40.980Z,959.53
2016-08-14T02:36:41.004Z,959.54
2016-08-14T02:37:41.030Z,959.54
2016-08-14T02:38:41.056Z,959.55
2016-08-14T02:39:41.085Z,959.55
2016-08-14T02:40:41.110Z,959.55
2016-08-14T02:41:41.217Z,959.54
2016-08-14T02:42:41.176Z,959.5
2016-08-14T02:43:41.187Z,959.53
2016-08-14T02:44:41.215Z,959.49
2016-08-14T02:45:41.241Z,959.49
2016-08-14T02:46:41.267Z,959.5
2016-08-14T02:47:41.293Z,959.48
2016-08-14T02:48:41.318Z,959.51
2016-08-14T02:49:41.346Z,959.5
2016-08-14T02:50:41.397Z,959.47
2016-08-14T02:51:41.398Z,959.45
2016-08-14T02:52:41.424Z,959.48
2016-08-14T02:53:41.451Z,959.46
2016-08-14T02:54:41.476Z,959.47
2016-08-14T02:55:41.502Z,959.49
2016-08-14T02:56:41.530Z,959.43
2016-08-14T02:57:41.555Z,959.45
2016-08-14T02:58:41.581Z,959.46
2016-08-14T02:59:41.607Z,959.45
2016-08-14T03:00:41.635Z,959.43
2016-08-14T03:01:41.660Z,959.44
2016-08-14T03:02:41.685Z,959.44
2016-08-14T03:03:41.710Z,959.43
2016-08-14T03:04:41.737Z,959.44
2016-08-14T03:05:41.763Z,959.44
2016-08-14T03:06:41.790Z,959.44
2016-08-14T03:07:41.816Z,959.41
2016-08-14T03:08:41.841Z,959.45
2016-08-14T03:09:41.868Z,959.43
2016-08-14T03:10:41.894Z,959.44
2016-08-14T03:11:41.920Z,959.44
2016-08-14T03:12:41.947Z,959.44
2016-08-14T03:13:41.973Z,959.46
2016-08-14T03:14:42.001Z,959.47
2016-08-14T03:15:42.027Z,959.45
2016-08-14T03:16:42.051Z,959.46
2016-08-14T03:17:42.077Z,959.42
2016-08-14T03:18:42.103Z,959.48
2016-08-14T03:19:42.129Z,959.42
2016-08-14T03:20:42.154Z,959.44
2016-08-14T03:21:42.181Z,959.42
2016-08-14T03:22:42.207Z,959.4
2016-08-14T03:23:42.233Z,959.49
2016-08-14T03:24:42.258Z,959.46
2016-08-14T03:25:42.286Z,959.45
2016-08-14T03:26:42.310Z,959.45
2016-08-14T03:27:42.343Z,959.45
2016-08-14T03:28:42.363Z,959.44
2016-08-14T03:29:42.389Z,959.43
2016-08-14T03:30:42.419Z,959.44
2016-08-14T03:31:42.441Z,959.45
2016-08-14T03:32:42.467Z,959.45
2016-08-14T03:33:42.494Z,959.45
2016-08-14T03:34:42.520Z,959.44
2016-08-14T03:35:42.547Z,959.48
2016-08-14T03:36:42.572Z,959.43
2016-08-14T03:37:42.601Z,959.47
2016-08-14T03:38:42.625Z,959.45
2016-08-14T03:39:42.649Z,959.44
2016-08-14T03:40:42.676Z,959.44
2016-08-14T03:41:42.703Z,959.42
2016-08-14T03:42:42.728Z,959.41
2016-08-14T03:43:42.754Z,959.43
2016-08-14T03:44:42.780Z,959.45
2016-08-14T03:45:42.820Z,959.4
2016-08-14T03:46:42.831Z,959.41
2016-08-14T03:47:42.859Z,959.45
2016-08-14T03:48:42.885Z,959.4
2016-08-14T03:49:42.911Z,959.41
2016-08-14T03:50:42.943Z,959.44
2016-08-14T03:51:42.961Z,959.42
2016-08-14T03:52:42.990Z,959.4
2016-08-14T03:53:43.035Z,959.42
2016-08-14T03:54:43.040Z,959.41
2016-08-14T03:55:43.065Z,959.39
2016-08-14T03:56:43.091Z,959.37
2016-08-14T03:57:43.118Z,959.45
2016-08-14T03:58:43.143Z,959.43
2016-08-14T03:59:43.171Z,959.41
2016-08-14T04:00:43.194Z,959.42
2016-08-14T04:01:43.220Z,959.43
2016-08-14T04:02:43.247Z,959.46
2016-08-14T04:03:43.274Z,959.44
2016-08-14T04:04:43.297Z,959.46
2016-08-14T04:05:43.324Z,959.44
2016-08-14T04:06:43.351Z,959.44
2016-08-14T04:07:43.375Z,959.45
2016-08-14T04:08:43.402Z,959.42
2016-08-14T04:09:43.429Z,959.48
2016-08-14T04:10:43.454Z,959.46
2016-08-14T04:11:43.479Z,959.5
2016-08-14T04:12:43.506Z,959.51
2016-08-14T04:13:43.529Z,959.44
2016-08-14T04:14:43.557Z,959.44
2016-08-14T04:15:43.583Z,959.5
2016-08-14T04:16:43.608Z,959.48
2016-08-14T04:17:43.642Z,959.48
2016-08-14T04:18:43.661Z,959.47
2016-08-14T04:19:43.685Z,959.5
2016-08-14T04:20:43.711Z,959.51
2016-08-14T04:21:43.739Z,959.53
2016-08-14T04:22:43.767Z,959.53
2016-08-14T04:23:43.796Z,959.54
2016-08-14T04:24:43.817Z,959.55
2016-08-14T04:25:43.844Z,959.55
2016-08-14T04:26:43.866Z,959.6
2016-08-14T04:27:43.893Z,959.54
2016-08-14T04:28:43.918Z,959.55
2016-08-14T04:29:43.943Z,959.59
2016-08-14T04:30:43.970Z,959.57
2016-08-14T04:31:43.996Z,959.59
2016-08-14T04:32:44.022Z,959.62
2016-08-14T04:33:44.063Z,959.56
2016-08-14T04:34:44.073Z,959.58
2016-08-14T04:35:44.101Z,959.62
2016-08-14T04:36:44.126Z,959.63
2016-08-14T04:37:44.150Z,959.63
2016-08-14T04:38:44.177Z,959.63
2016-08-14T04:39:44.203Z,959.61
2016-08-14T04:40:44.228Z,959.63
2016-08-14T04:41:44.256Z,959.6
2016-08-14T04:42:44.281Z,959.59
2016-08-14T04:43:44.306Z,959.6
2016-08-14T04:44:44.332Z,959.58
2016-08-14T04:45:44.359Z,959.61
2016-08-14T04:46:44.383Z,959.57
2016-08-14T04:47:44.410Z,959.63
2016-08-14T04:48:44.435Z,959.62
2016-08-14T04:49:44.462Z,959.61
2016-08-14T04:50:44.489Z,959.64
2016-08-14T04:51:44.513Z,959.62
2016-08-14T04:52:44.538Z,959.63
2016-08-14T04:53:44.565Z,959.63
2016-08-14T04:54:44.592Z,959.61
2016-08-14T04:55:44.617Z,959.6
2016-08-14T04:56:44.645Z,959.61
2016-08-14T04:57:44.671Z,959.59
2016-08-14T04:58:44.696Z,959.59
2016-08-14T04:59:44.722Z,959.62
2016-08-14T05:00:44.748Z,959.63
2016-08-14T05:01:44.773Z,959.63
2016-08-14T05:02:44.799Z,959.68
2016-08-14T05:03:44.825Z,959.68
2016-08-14T05:04:44.852Z,959.67
2016-08-14T05:05:44.877Z,959.72
2016-08-14T05:06:44.903Z,959.74
2016-08-14T05:07:44.929Z,959.68
2016-08-14T05:08:44.955Z,959.7
2016-08-14T05:09:44.982Z,959.68
2016-08-14T05:10:45.007Z,959.68
2016-08-14T05:11:45.033Z,959.69
2016-08-14T05:12:45.061Z,959.69
2016-08-14T05:13:45.086Z,959.67
2016-08-14T05:14:45.112Z,959.71
2016-08-14T05:15:45.139Z,959.7
2016-08-14T05:16:45.165Z,959.73
2016-08-14T05:17:45.191Z,959.73
2016-08-14T05:18:45.218Z,959.7
2016-08-14T05:19:45.243Z,959.69
2016-08-14T05:20:45.273Z,959.71
2016-08-14T05:21:45.294Z,959.71
2016-08-14T05:22:45.322Z,959.71
2016-08-14T05:23:45.348Z,959.7
2016-08-14T05:24:45.373Z,959.69
2016-08-14T05:25:45.398Z,959.72
2016-08-14T05:26:45.427Z,959.7
2016-08-14T05:27:45.452Z,959.68
2016-08-14T05:28:45.490Z,959.68
2016-08-14T05:29:45.503Z,959.69
2016-08-14T05:30:45.529Z,959.7
2016-08-14T05:31:45.556Z,959.72
2016-08-14T05:32:45.583Z,959.73
2016-08-14T05:33:45.608Z,959.73
2016-08-14T05:34:45.635Z,959.73
2016-08-14T05:35:45.660Z,959.74
2016-08-14T05:36:45.706Z,959.74
2016-08-14T05:37:45.712Z,959.75
2016-08-14T05:38:45.738Z,959.73
2016-08-14T05:39:45.765Z,959.77
2016-08-14T05:40:45.803Z,959.78
2016-08-14T05:41:45.817Z,959.79
2016-08-14T05:42:45.843Z,959.81
2016-08-14T05:43:45.871Z,959.81
2016-08-14T05:44:45.899Z,959.8
2016-08-14T05:45:45.922Z,959.77
2016-08-14T05:46:45.948Z,959.79
2016-08-14T05:47:45.977Z,959.79
2016-08-14T05:48:46.002Z,959.78
2016-08-14T05:49:46.028Z,959.79
2016-08-14T05:50:46.054Z,959.82
2016-08-14T05:51:46.080Z,959.82
2016-08-14T05:52:46.107Z,959.8
2016-08-14T05:53:46.132Z,959.83
2016-08-14T05:54:46.158Z,959.8
2016-08-14T05:55:46.186Z,959.84
2016-08-14T05:56:46.212Z,959.84
2016-08-14T05:57:46.239Z,959.86
2016-08-14T05:58:46.265Z,959.87
2016-08-14T05:59:46.292Z,959.89
2016-08-14T06:00:46.320Z,959.89
2016-08-14T06:01:46.345Z,959.89
2016-08-14T06:02:46.370Z,959.87
2016-08-14T06:03:46.399Z,959.86
2016-08-14T06:04:46.425Z,959.84
2016-08-14T06:05:46.451Z,959.85
2016-08-14T06:06:46.478Z,959.9
2016-08-14T06:07:46.506Z,959.88
2016-08-14T06:08:46.531Z,959.9
2016-08-14T06:09:46.557Z,959.9
2016-08-14T06:10:46.585Z,959.89
2016-08-14T06:11:46.611Z,959.89
2016-08-14T06:12:46.640Z,959.89
2016-08-14T06:13:46.664Z,959.91
2016-08-14T06:14:46.690Z,959.9
2016-08-14T06:15:46.717Z,959.88
2016-08-14T06:16:46.744Z,959.9
2016-08-14T06:17:46.771Z,959.92
2016-08-14T06:18:46.798Z,959.88
2016-08-14T06:19:46.825Z,959.85
2016-08-14T06:20:46.851Z,959.88
2016-08-14T06:21:46.877Z,959.93
2016-08-14T06:22:46.906Z,959.87
2016-08-14T06:23:46.934Z,959.88
2016-08-14T06:24:46.963Z,959.92
2016-08-14T06:25:46.985Z,959.92
2016-08-14T06:26:47.015Z,959.94
2016-08-14T06:27:47.040Z,959.97
2016-08-14T06:28:47.066Z,959.93
2016-08-14T06:29:47.093Z,959.93
2016-08-14T06:30:47.120Z,959.93
2016-08-14T06:31:47.148Z,959.91
2016-08-14T06:32:47.177Z,959.94
2016-08-14T06:33:47.202Z,959.89
2016-08-14T06:34:47.228Z,959.97
2016-08-14T06:35:47.255Z,959.92
2016-08-14T06:36:47.283Z,959.93
2016-08-14T06:37:47.309Z,959.93
2016-08-14T06:38:47.336Z,959.95
2016-08-14T06:39:47.365Z,959.98
2016-08-14T06:40:47.398Z,959.96
2016-08-14T06:41:47.417Z,960
2016-08-14T06:42:47.446Z,959.98
2016-08-14T06:43:47.472Z,960.01
2016-08-14T06:44:47.515Z,959.96
2016-08-14T06:45:47.530Z,960
2016-08-14T06:46:47.557Z,959.99
2016-08-14T06:47:47.597Z,960.01
2016-08-14T06:48:47.613Z,959.97
2016-08-14T06:49:47.640Z,959.97
2016-08-14T06:50:47.667Z,959.98
2016-08-14T06:51:47.695Z,959.99
2016-08-14T06:52:47.872Z,959.99
2016-08-14T06:53:47.750Z,960.05
2016-08-14T06:54:47.778Z,960.01
2016-08-14T06:55:47.805Z,959.98
2016-08-14T06:56:47.833Z,959.99
2016-08-14T06:57:47.861Z,959.94
2016-08-14T06:58:47.890Z,959.96
2016-08-14T06:59:47.916Z,959.93
2016-08-14T07:00:47.943Z,959.94
2016-08-14T07:01:47.972Z,959.94
2016-08-14T07:02:48.000Z,959.98
2016-08-14T07:03:48.028Z,959.99
2016-08-14T07:04:48.056Z,960
2016-08-14T07:05:48.084Z,959.99
2016-08-14T07:06:48.111Z,960.01
2016-08-14T07:07:48.139Z,960
2016-08-14T07:08:48.167Z,959.98
2016-08-14T07:09:48.196Z,960.03
2016-08-14T07:10:48.223Z,960.04
2016-08-14T07:11:48.251Z,960.05
2016-08-14T07:12:48.280Z,960.04
2016-08-14T07:13:48.307Z,960.07
2016-08-14T07:14:48.337Z,960.05
2016-08-14T07:15:48.364Z,960.06
2016-08-14T07:16:48.393Z,960.05
2016-08-14T07:17:48.432Z,960.05
2016-08-14T07:18:48.450Z,960.06
2016-08-14T07:19:48.477Z,960.11
2016-08-14T07:20:48.531Z,960.1
2016-08-14T07:21:48.545Z,960.11
2016-08-14T07:22:48.563Z,960.11
2016-08-14T07:23:48.601Z,960.1
2016-08-14T07:24:48.626Z,960.14
2016-08-14T07:25:48.655Z,960.15
2016-08-14T07:26:48.676Z,960.17
2016-08-14T07:27:48.705Z,960.15
2016-08-14T07:28:48.745Z,960.15
2016-08-14T07:29:48.762Z,960.17
2016-08-14T07:30:48.790Z,960.14
2016-08-14T07:31:48.820Z,960.14
2016-08-14T07:32:48.847Z,960.15
2016-08-14T07:33:48.876Z,960.13
2016-08-14T07:34:48.905Z,960.17
2016-08-14T07:35:48.933Z,960.16
2016-08-14T07:36:48.963Z,960.14
2016-08-14T07:37:48.991Z,960.14
2016-08-14T07:38:49.021Z,960.13
2016-08-14T07:39:49.048Z,960.18
2016-08-14T07:40:49.076Z,960.19
2016-08-14T07:41:49.106Z,960.18
2016-08-14T07:42:49.135Z,960.2
2016-08-14T07:43:49.165Z,960.19
2016-08-14T07:44:49.194Z,960.21
2016-08-14T07:45:49.222Z,960.18
2016-08-14T07:46:49.250Z,960.19
2016-08-14T07:47:49.280Z,960.17
2016-08-14T07:48:49.309Z,960.19
2016-08-14T07:49:49.338Z,960.19
2016-08-14T07:50:49.366Z,960.18
2016-08-14T07:51:49.396Z,960.21
2016-08-14T07:52:49.426Z,960.19
2016-08-14T07:53:49.454Z,960.22
2016-08-14T07:54:49.483Z,960.2
2016-08-14T07:55:49.513Z,960.2
2016-08-14T07:56:49.541Z,960.17
2016-08-14T07:57:49.571Z,960.17
2016-08-14T07:58:49.600Z,960.18
2016-08-14T07:59:49.629Z,960.19
2016-08-14T08:00:49.657Z,960.18
2016-08-14T08:01:49.706Z,960.15
2016-08-14T08:02:49.723Z,960.19
2016-08-14T08:03:49.746Z,960.21
2016-08-14T08:04:49.776Z,960.21
2016-08-14T08:05:49.804Z,960.19
2016-08-14T08:06:49.833Z,960.23
2016-08-14T08:07:49.868Z,960.22
2016-08-14T08:08:49.894Z,960.2
2016-08-14T08:09:49.924Z,960.18
2016-08-14T08:10:49.953Z,960.18
2016-08-14T08:11:49.987Z,960.17
2016-08-14T08:12:50.012Z,960.2
2016-08-14T08:13:50.042Z,960.19
2016-08-14T08:14:50.072Z,960.21
2016-08-14T08:15:50.103Z,960.18
2016-08-14T08:16:50.131Z,960.22
2016-08-14T08:17:50.161Z,960.22
2016-08-14T08:18:50.192Z,960.24
2016-08-14T08:19:50.222Z,960.22
2016-08-14T08:20:50.250Z,960.23
2016-08-14T08:21:50.280Z,960.21
2016-08-14T08:22:50.311Z,960.19
2016-08-14T08:23:50.340Z,960.2
2016-08-14T08:24:50.370Z,960.16
2016-08-14T08:25:50.416Z,960.17
2016-08-14T08:26:50.431Z,960.14
2016-08-14T08:27:50.460Z,960.14
2016-08-14T08:28:50.490Z,960.16
2016-08-14T08:29:50.526Z,960.2
2016-08-14T08:30:50.549Z,960.15
2016-08-14T08:31:50.580Z,960.17
2016-08-14T08:32:50.610Z,960.13
2016-08-14T08:33:50.648Z,960.13
2016-08-14T08:34:50.672Z,960.14
2016-08-14T08:35:50.699Z,960.15
2016-08-14T08:36:50.730Z,960.12
2016-08-14T08:37:50.760Z,960.13
2016-08-14T08:38:50.789Z,960.07
2016-08-14T08:39:50.820Z,960.1
2016-08-14T08:40:50.850Z,960.12
2016-08-14T08:41:50.879Z,960.11
2016-08-14T08:42:50.911Z,960.07
2016-08-14T08:43:50.940Z,960.07
2016-08-14T08:44:50.970Z,960.08
2016-08-14T08:45:51.000Z,960.07
2016-08-14T08:46:51.031Z,960.06
2016-08-14T08:47:51.061Z,960.06
2016-08-14T08:48:51.091Z,960.07
2016-08-14T08:49:51.121Z,960.05
2016-08-14T08:50:51.159Z,960.06
2016-08-14T08:51:51.180Z,960.07
2016-08-14T08:52:51.212Z,960.09
2016-08-14T08:53:51.242Z,960.1
2016-08-14T08:54:51.272Z,960.08
2016-08-14T08:55:51.303Z,960.08
2016-08-14T08:56:51.333Z,960.07
2016-08-14T08:57:51.368Z,960.08
2016-08-14T08:58:51.394Z,960.1
2016-08-14T08:59:51.424Z,960.08
2016-08-14T09:00:51.453Z,960.08
2016-08-14T09:01:51.485Z,960.05
2016-08-14T09:02:51.515Z,960.09
2016-08-14T09:03:51.546Z,960.09
2016-08-14T09:04:51.577Z,960.1
2016-08-14T09:05:51.607Z,960.09
2016-08-14T09:06:51.653Z,960.09
2016-08-14T09:07:51.668Z,960.1
2016-08-14T09:08:51.700Z,960.07
2016-08-14T09:09:51.728Z,960.04
2016-08-14T09:10:51.761Z,960.07
2016-08-14T09:11:51.791Z,960.05
2016-08-14T09:12:51.822Z,960.09
2016-08-14T09:13:51.853Z,960.04
2016-08-14T09:14:51.882Z,960.02
2016-08-14T09:15:51.913Z,960.05
2016-08-14T09:16:51.945Z,960.05
2016-08-14T09:17:51.976Z,960.05
2016-08-14T09:18:52.006Z,960.03
2016-08-14T09:19:52.038Z,960.02
2016-08-14T09:20:52.069Z,960.01
2016-08-14T09:21:52.100Z,960.02
2016-08-14T09:22:52.131Z,960.04
2016-08-14T09:23:52.179Z,959.99
2016-08-14T09:24:52.193Z,959.98
2016-08-14T09:25:52.225Z,959.98
2016-08-14T09:26:52.255Z,959.99
2016-08-14T09:27:52.286Z,960.02
2016-08-14T09:28:52.317Z,959.96
2016-08-14T09:29:52.347Z,960.01
2016-08-14T09:30:52.379Z,960.03
2016-08-14T09:31:52.416Z,959.99
2016-08-14T09:32:52.443Z,959.94
2016-08-14T09:33:52.473Z,959.94
2016-08-14T09:34:52.504Z,959.92
2016-08-14T09:35:52.536Z,959.9
2016-08-14T09:36:52.567Z,959.91
2016-08-14T09:37:52.598Z,959.9
2016-08-14T09:38:52.629Z,959.92
2016-08-14T09:39:52.674Z,959.89
2016-08-14T09:40:52.691Z,959.85
2016-08-14T09:41:52.724Z,959.86
2016-08-14T09:42:52.755Z,959.88
2016-08-14T09:43:52.786Z,959.86
2016-08-14T09:44:52.817Z,959.83
2016-08-14T09:45:52.849Z,959.81
2016-08-14T09:46:52.880Z,959.78
2016-08-14T09:47:52.915Z,959.79
2016-08-14T09:48:52.945Z,959.82
2016-08-14T09:49:52.976Z,959.82
2016-08-14T09:50:53.016Z,959.82
2016-08-14T09:51:53.037Z,959.84
2016-08-14T09:52:53.137Z,959.79
2016-08-14T09:53:53.105Z,959.75
2016-08-14T09:54:53.138Z,959.81
2016-08-14T09:55:53.169Z,959.76
2016-08-14T09:56:53.201Z,959.78
2016-08-14T09:57:53.229Z,959.75
2016-08-14T09:58:53.259Z,959.78
2016-08-14T09:59:53.291Z,959.77
2016-08-14T10:00:53.325Z,959.78
2016-08-14T10:01:53.357Z,959.78
2016-08-14T10:02:53.387Z,959.83
2016-08-14T10:03:53.419Z,959.81
2016-08-14T10:04:53.475Z,959.82
2016-08-14T10:05:53.497Z,959.78
2016-08-14T10:06:53.521Z,959.8
2016-08-14T10:07:53.552Z,959.76
2016-08-14T10:08:53.583Z,959.74
2016-08-14T10:09:53.611Z,959.77
2016-08-14T10:10:53.640Z,959.78
2016-08-14T10:11:53.672Z,959.73
2016-08-14T10:12:53.714Z,959.74
2016-08-14T10:13:53.738Z,959.71
2016-08-14T10:14:53.768Z,959.74
2016-08-14T10:15:53.800Z,959.76
2016-08-14T10:16:53.830Z,959.75
2016-08-14T10:17:53.863Z,959.73
2016-08-14T10:18:53.896Z,959.71
2016-08-14T10:19:53.972Z,959.72
2016-08-14T10:20:53.958Z,959.72
2016-08-14T10:21:54.005Z,959.7
2016-08-14T10:22:54.023Z,959.72
2016-08-14T10:23:54.057Z,959.66
2016-08-14T10:24:54.086Z,959.68
2016-08-14T10:25:54.120Z,959.72
2016-08-14T10:26:54.151Z,959.72
2016-08-14T10:27:54.182Z,959.67
2016-08-14T10:28:54.225Z,959.7
2016-08-14T10:29:54.247Z,959.7
2016-08-14T10:30:54.286Z,959.67
2016-08-14T10:31:54.310Z,959.67
2016-08-14T10:32:54.343Z,959.67
2016-08-14T10:33:54.383Z,959.69
2016-08-14T10:34:54.408Z,959.68
2016-08-14T10:35:54.441Z,959.69
2016-08-14T10:36:54.473Z,959.66
2016-08-14T10:37:54.504Z,959.62
2016-08-14T10:38:54.536Z,959.63
2016-08-14T10:39:54.570Z,959.63
2016-08-14T10:40:54.602Z,959.62
2016-08-14T10:41:54.634Z,959.59
2016-08-14T10:42:54.667Z,959.55
2016-08-14T10:43:54.699Z,959.51
2016-08-14T10:44:54.732Z,959.51
2016-08-14T10:45:54.867Z,959.5
2016-08-14T10:46:54.813Z,959.51
2016-08-14T10:47:54.828Z,959.5
2016-08-14T10:48:54.861Z,959.48
2016-08-14T10:49:54.893Z,959.49
2016-08-14T10:50:54.925Z,959.5
2016-08-14T10:51:54.959Z,959.47
2016-08-14T10:52:54.992Z,959.46
2016-08-14T10:53:55.024Z,959.46
2016-08-14T10:54:55.054Z,959.46
2016-08-14T10:55:55.088Z,959.47
2016-08-14T10:56:55.122Z,959.46
2016-08-14T10:57:55.152Z,959.47
2016-08-14T10:58:55.186Z,959.48
2016-08-14T10:59:55.218Z,959.48
2016-08-14T11:00:55.249Z,959.43
2016-08-14T11:01:55.282Z,959.41
2016-08-14T11:02:55.319Z,959.38
2016-08-14T11:03:55.349Z,959.4
2016-08-14T11:04:55.379Z,959.37
2016-08-14T11:05:55.414Z,959.34
2016-08-14T11:06:55.445Z,959.39
2016-08-14T11:07:55.479Z,959.36
2016-08-14T11:08:55.512Z,959.34
2016-08-14T11:09:55.544Z,959.35
2016-08-14T11:10:55.576Z,959.32
2016-08-14T11:11:55.611Z,959.34
2016-08-14T11:12:55.640Z,959.38
2016-08-14T11:13:55.673Z,959.38
2016-08-14T11:14:55.706Z,959.42
2016-08-14T11:15:55.737Z,959.39
2016-08-14T11:16:55.773Z,959.38
2016-08-14T11:17:55.828Z,959.36
2016-08-14T11:18:55.837Z,959.33
2016-08-14T11:19:55.889Z,959.34
2016-08-14T11:20:55.903Z,959.29
2016-08-14T11:21:55.934Z,959.29
2016-08-14T11:22:55.966Z,959.27
2016-08-14T11:23:56.001Z,959.29
2016-08-14T11:24:56.034Z,959.27
2016-08-14T11:25:56.067Z,959.29
2016-08-14T11:26:56.099Z,959.28
2016-08-14T11:27:56.130Z,959.3
2016-08-14T11:28:56.165Z,959.3
2016-08-14T11:29:56.197Z,959.28
2016-08-14T11:30:56.229Z,959.24
2016-08-14T11:31:56.262Z,959.24
2016-08-14T11:32:56.295Z,959.21
2016-08-14T11:33:56.327Z,959.26
2016-08-14T11:34:56.359Z,959.24
2016-08-14T11:35:56.393Z,959.24
2016-08-14T11:36:56.434Z,959.26
2016-08-14T11:37:56.458Z,959.24
2016-08-14T11:38:56.491Z,959.29
2016-08-14T11:39:56.523Z,959.28
2016-08-14T11:40:56.559Z,959.25
2016-08-14T11:41:56.594Z,959.26
2016-08-14T11:42:56.622Z,959.17
2016-08-14T11:43:56.660Z,959.21
2016-08-14T11:44:56.690Z,959.22
2016-08-14T11:45:56.720Z,959.18
2016-08-14T11:46:56.756Z,959.23
2016-08-14T11:47:56.785Z,959.21
2016-08-14T11:48:56.817Z,959.23
2016-08-14T11:49:56.851Z,959.19
2016-08-14T11:50:56.884Z,959.25
2016-08-14T11:51:56.915Z,959.23
2016-08-14T11:52:56.948Z,959.27
2016-08-14T11:53:57.003Z,959.25
2016-08-14T11:54:57.018Z,959.22
2016-08-14T11:55:57.053Z,959.25
2016-08-14T11:56:57.080Z,959.19
2016-08-14T11:57:57.113Z,959.22
2016-08-14T11:58:57.145Z,959.18
2016-08-14T11:59:57.178Z,959.2
2016-08-14T12:00:57.210Z,959.2
2016-08-14T12:01:57.243Z,959.18
2016-08-14T12:02:57.276Z,959.16
2016-08-14T12:03:57.310Z,959.18
2016-08-14T12:04:57.341Z,959.22
2016-08-14T12:05:57.374Z,959.15
2016-08-14T12:06:57.407Z,959.18
2016-08-14T12:07:57.440Z,959.18
2016-08-14T12:08:57.474Z,959.17
2016-08-14T12:09:57.513Z,959.16
2016-08-14T12:10:57.540Z,959.12
2016-08-14T12:11:57.573Z,959.15
2016-08-14T12:12:57.605Z,959.12
2016-08-14T12:13:57.637Z,959.11
2016-08-14T12:14:57.670Z,959.13
2016-08-14T12:15:57.706Z,959.09
2016-08-14T12:16:57.738Z,959.03
2016-08-14T12:17:57.768Z,959.04
2016-08-14T12:18:57.806Z,959.01
2016-08-14T12:19:57.836Z,959
2016-08-14T12:20:57.868Z,959.03
2016-08-14T12:21:57.900Z,959.03
2016-08-14T12:22:57.934Z,958.97
2016-08-14T12:23:57.966Z,958.94
2016-08-14T12:24:57.999Z,958.97
2016-08-14T12:25:58.048Z,958.98
2016-08-14T12:26:58.081Z,958.98
2016-08-14T12:27:58.099Z,958.97
2016-08-14T12:28:58.129Z,958.99
2016-08-14T12:29:58.165Z,958.97
2016-08-14T12:30:58.197Z,958.98
2016-08-14T12:31:58.229Z,958.94